createdAt,value
2019-03-09T00:02:06.636Z,4.60
2019-03-09T00:04:38.006Z,4.23
2019-03-09T00:07:09.164Z,4.53
2019-03-09T00:09:40.482Z,4.37
2019-03-09T00:12:13.146Z,4.43
2019-03-09T00:14:44.617Z,3.97
2019-03-09T00:17:15.748Z,4.43
2019-03-09T00:19:47.130Z,4.33
2019-03-09T00:22:18.633Z,4.47
2019-03-09T00:25:00.478Z,3.60
2019-03-09T00:27:42.797Z,4.17
2019-03-09T00:30:43.416Z,4.23
2019-03-09T00:33:14.521Z,4.50
2019-03-09T00:35:45.902Z,3.90
2019-03-09T00:38:16.973Z,3.70
2019-03-09T00:40:48.290Z,3.97
2019-03-09T00:43:19.385Z,3.90
2019-03-09T00:45:50.817Z,3.67
2019-03-09T00:48:41.007Z,3.77
2019-03-09T00:51:12.204Z,3.30
2019-03-09T00:53:43.299Z,3.30
2019-03-09T00:56:15.041Z,3.97
2019-03-09T00:58:46.240Z,3.30
2019-03-09T01:01:17.642Z,3.20
2019-03-09T01:03:48.710Z,3.30
2019-03-09T01:06:20.025Z,3.00
2019-03-09T01:08:51.105Z,3.37
2019-03-09T01:11:22.524Z,3.00
2019-03-09T01:13:53.602Z,2.90
2019-03-09T01:16:25.127Z,2.93
2019-03-09T01:18:56.211Z,3.07
2019-03-09T01:21:27.616Z,3.37
2019-03-09T01:23:58.741Z,3.30
2019-03-09T01:26:30.100Z,3.17
2019-03-09T01:29:01.189Z,3.50
2019-03-09T01:31:32.498Z,2.93
2019-03-09T01:34:15.360Z,2.93
2019-03-09T01:36:46.754Z,3.70
2019-03-09T01:39:17.817Z,3.30
2019-03-09T01:41:49.174Z,3.37
2019-03-09T01:44:20.284Z,3.27
2019-03-09T01:46:51.739Z,3.37
2019-03-09T01:49:22.783Z,3.73
2019-03-09T01:51:54.151Z,3.60
2019-03-09T01:54:25.208Z,3.47
2019-03-09T01:56:56.524Z,3.33
2019-03-09T01:59:27.578Z,3.10
2019-03-09T02:01:58.912Z,3.60
2019-03-09T02:04:29.966Z,3.40
2019-03-09T02:07:01.304Z,3.03
2019-03-09T02:09:32.463Z,2.80
2019-03-09T02:12:03.812Z,3.03
2019-03-09T02:14:34.942Z,3.30
2019-03-09T02:17:06.295Z,3.17
2019-03-09T02:19:37.324Z,2.80
2019-03-09T02:22:08.682Z,3.37
2019-03-09T02:24:39.791Z,3.03
2019-03-09T02:27:11.084Z,4.00
2019-03-09T02:29:42.114Z,3.57
2019-03-09T02:32:13.355Z,2.97
2019-03-09T02:34:44.427Z,3.17
2019-03-09T02:37:15.573Z,3.40
2019-03-09T02:40:02.295Z,3.93
2019-03-09T02:42:33.909Z,3.57
2019-03-09T02:45:06.567Z,3.47
2019-03-09T02:47:37.970Z,3.63
2019-03-09T02:50:10.282Z,3.73
2019-03-09T02:52:41.681Z,3.70
2019-03-09T02:55:14.044Z,3.27
2019-03-09T02:57:45.520Z,3.40
2019-03-09T03:00:17.433Z,3.67
2019-03-09T03:02:55.082Z,3.90
2019-03-09T03:05:26.194Z,3.90
2019-03-09T03:07:57.557Z,3.30
2019-03-09T03:10:28.619Z,3.63
2019-03-09T03:13:00.154Z,4.00
2019-03-09T03:15:32.827Z,4.10
2019-03-09T03:18:04.604Z,3.73
2019-03-09T03:20:35.768Z,3.60
2019-03-09T03:23:07.188Z,3.60
2019-03-09T03:25:38.255Z,4.07
2019-03-09T03:28:09.580Z,3.83
2019-03-09T03:30:40.696Z,3.87
2019-03-09T03:33:12.403Z,4.10
2019-03-09T03:35:43.600Z,4.47
2019-03-09T03:38:14.991Z,3.60
2019-03-09T03:40:46.113Z,3.50
2019-03-09T03:43:17.694Z,4.13
2019-03-09T03:45:48.738Z,3.90
2019-03-09T03:48:20.376Z,4.10
2019-03-09T03:50:51.510Z,3.77
2019-03-09T03:53:22.866Z,4.00
2019-03-09T03:55:54.290Z,4.33
2019-03-09T03:58:25.712Z,4.17
2019-03-09T04:00:56.806Z,4.20
2019-03-09T04:03:28.597Z,3.73
2019-03-09T04:05:59.821Z,4.00
2019-03-09T04:08:31.485Z,3.40
2019-03-09T04:11:02.647Z,4.30
2019-03-09T04:13:33.988Z,3.73
2019-03-09T04:16:05.049Z,4.20
2019-03-09T04:18:36.379Z,3.77
2019-03-09T04:21:07.626Z,3.50
2019-03-09T04:23:38.822Z,3.87
2019-03-09T04:26:09.855Z,3.77
2019-03-09T04:28:41.360Z,3.80
2019-03-09T04:31:12.420Z,3.93
2019-03-09T04:33:43.755Z,3.53
2019-03-09T04:36:14.846Z,3.10
2019-03-09T04:38:47.373Z,3.40
2019-03-09T04:41:18.457Z,3.67
2019-03-09T04:43:49.610Z,2.97
2019-03-09T04:46:20.662Z,3.17
2019-03-09T04:48:51.724Z,3.10
2019-03-09T04:51:22.764Z,3.40
2019-03-09T04:53:53.960Z,2.87
2019-03-09T04:56:25.088Z,3.10
2019-03-09T04:58:56.343Z,2.90
2019-03-09T05:01:27.433Z,3.00
2019-03-09T05:04:52.537Z,3.17
2019-03-09T05:07:47.611Z,3.40
2019-03-09T05:10:54.672Z,3.13
2019-03-09T05:13:35.190Z,3.20
2019-03-09T05:16:06.524Z,3.20
2019-03-09T05:18:37.762Z,2.80
2019-03-09T05:21:09.076Z,3.23
2019-03-09T05:23:40.160Z,2.90
2019-03-09T05:26:11.434Z,3.00
2019-03-09T05:28:42.516Z,2.70
2019-03-09T05:31:13.652Z,2.70
2019-03-09T05:33:44.876Z,2.80
2019-03-09T05:36:16.044Z,3.13
2019-03-09T05:38:47.093Z,2.30
2019-03-09T05:41:18.223Z,2.37
2019-03-09T05:43:49.315Z,2.50
2019-03-09T05:46:20.747Z,2.40
2019-03-09T05:48:53.547Z,2.40
2019-03-09T05:51:24.620Z,2.20
2019-03-09T05:53:55.936Z,2.10
2019-03-09T05:56:27.172Z,2.00
2019-03-09T05:58:58.502Z,2.37
2019-03-09T06:01:29.600Z,1.80
2019-03-09T06:04:00.999Z,2.10
2019-03-09T06:06:32.060Z,1.80
2019-03-09T06:09:03.398Z,2.10
2019-03-09T06:11:36.095Z,1.80
2019-03-09T06:14:07.332Z,1.90
2019-03-09T06:16:38.380Z,1.90
2019-03-09T06:19:09.714Z,1.87
2019-03-09T06:21:41.050Z,1.90
2019-03-09T06:24:12.418Z,2.37
2019-03-09T06:26:43.656Z,2.03
2019-03-09T06:29:14.360Z,2.03
2019-03-09T06:32:32.524Z,1.80
2019-03-09T06:35:03.844Z,2.30
2019-03-09T06:37:35.762Z,2.30
2019-03-09T06:40:07.243Z,2.10
2019-03-09T06:42:46.896Z,2.40
2019-03-09T06:45:21.476Z,2.53
2019-03-09T06:47:52.609Z,2.30
2019-03-09T06:50:23.893Z,2.10
2019-03-09T06:52:54.976Z,2.40
2019-03-09T06:55:26.116Z,2.30
2019-03-09T06:57:57.274Z,1.93
2019-03-09T07:00:33.765Z,2.00
2019-03-09T07:03:04.964Z,1.80
2019-03-09T07:05:36.177Z,1.73
2019-03-09T07:08:07.442Z,2.03
2019-03-09T07:10:50.112Z,2.40
2019-03-09T07:13:20.551Z,2.33
2019-03-09T07:15:51.099Z,2.27
2019-03-09T07:18:28.516Z,1.90
2019-03-09T07:20:59.724Z,1.60
2019-03-09T07:23:30.999Z,1.90
2019-03-09T07:26:02.217Z,1.70
2019-03-09T07:28:33.286Z,1.87
2019-03-09T07:31:04.834Z,2.67
2019-03-09T07:33:36.046Z,2.00
2019-03-09T07:36:07.276Z,1.87
2019-03-09T07:38:38.322Z,1.90
2019-03-09T07:41:09.714Z,2.63
2019-03-09T07:43:40.766Z,2.30
2019-03-09T07:46:12.142Z,2.20
2019-03-09T07:48:43.254Z,2.30
2019-03-09T07:51:15.609Z,2.20
2019-03-09T07:53:46.774Z,2.53
2019-03-09T07:56:18.114Z,2.30
2019-03-09T07:58:49.164Z,1.90
2019-03-09T08:01:20.357Z,2.07
2019-03-09T08:03:51.390Z,2.30
2019-03-09T08:06:22.983Z,2.20
2019-03-09T08:08:54.308Z,2.00
2019-03-09T08:11:25.586Z,2.57
2019-03-09T08:13:56.740Z,2.33
2019-03-09T08:16:35.517Z,2.03
2019-03-09T08:19:00.768Z,2.07
2019-03-09T08:21:32.106Z,2.20
2019-03-09T08:24:03.567Z,2.30
2019-03-09T08:26:35.019Z,2.07
2019-03-09T08:29:06.127Z,2.37
2019-03-09T08:31:37.507Z,2.00
2019-03-09T08:34:08.573Z,2.07
2019-03-09T08:36:39.796Z,1.70
2019-03-09T08:39:11.142Z,1.90
2019-03-09T08:41:43.137Z,1.80
2019-03-09T08:44:14.514Z,2.00
2019-03-09T08:46:46.440Z,2.10
2019-03-09T08:49:17.498Z,2.10
2019-03-09T08:51:48.936Z,2.03
2019-03-09T08:54:20.372Z,2.13
2019-03-09T08:56:52.077Z,2.10
2019-03-09T08:59:23.200Z,2.03
2019-03-09T09:02:04.694Z,2.20
2019-03-09T09:04:36.866Z,1.80
2019-03-09T09:07:08.388Z,2.00
2019-03-09T09:09:39.551Z,2.20
2019-03-09T09:12:10.876Z,2.23
2019-03-09T09:14:42.131Z,2.00
2019-03-09T09:17:13.781Z,2.03
2019-03-09T09:19:45.114Z,1.67
2019-03-09T09:22:16.389Z,2.20
2019-03-09T09:24:47.815Z,2.10
2019-03-09T09:27:19.082Z,1.97
2019-03-09T09:29:50.166Z,2.10
2019-03-09T09:32:21.676Z,2.30
2019-03-09T09:34:52.819Z,1.87
2019-03-09T09:37:24.221Z,1.70
2019-03-09T09:39:55.336Z,2.07
2019-03-09T09:42:26.610Z,2.00
2019-03-09T09:44:57.688Z,2.07
2019-03-09T09:47:29.054Z,2.20
2019-03-09T09:50:03.935Z,2.20
2019-03-09T09:52:35.104Z,2.33
2019-03-09T09:55:07.974Z,1.90
2019-03-09T09:57:39.263Z,2.10
2019-03-09T10:00:18.692Z,1.80
2019-03-09T10:02:49.955Z,2.07
2019-03-09T10:05:21.372Z,2.10
2019-03-09T10:07:52.852Z,1.67
2019-03-09T10:10:25.219Z,2.00
2019-03-09T10:12:56.512Z,2.00
2019-03-09T10:15:27.743Z,1.90
2019-03-09T10:17:59.373Z,2.23
2019-03-09T10:20:30.824Z,2.27
2019-03-09T10:23:04.511Z,1.80
2019-03-09T10:25:35.100Z,1.90
2019-03-09T10:28:06.418Z,2.13
2019-03-09T10:30:37.684Z,1.87
2019-03-09T10:33:08.894Z,2.00
2019-03-09T10:35:40.180Z,2.10
2019-03-09T10:38:11.413Z,2.00
2019-03-09T10:40:42.483Z,2.23
2019-03-09T10:43:14.128Z,2.17
2019-03-09T10:45:45.293Z,2.13
2019-03-09T10:48:17.030Z,2.20
2019-03-09T10:50:48.105Z,1.70
2019-03-09T10:53:19.719Z,2.17
2019-03-09T10:55:50.890Z,2.30
2019-03-09T10:58:22.434Z,2.20
2019-03-09T11:00:54.414Z,2.13
2019-03-09T11:03:26.143Z,1.90
2019-03-09T11:05:57.481Z,1.80
2019-03-09T11:08:28.832Z,2.17
2019-03-09T11:11:00.381Z,1.87
2019-03-09T11:13:31.684Z,2.30
2019-03-09T11:16:02.794Z,2.00
2019-03-09T11:18:34.238Z,1.97
2019-03-09T11:21:05.498Z,1.90
2019-03-09T11:23:37.029Z,2.30
2019-03-09T11:26:08.238Z,1.77
2019-03-09T11:28:39.647Z,2.00
2019-03-09T11:31:10.747Z,1.80
2019-03-09T11:33:42.152Z,1.90
2019-03-09T11:36:13.557Z,2.30
2019-03-09T11:38:44.830Z,1.80
2019-03-09T11:41:19.279Z,2.10
2019-03-09T11:43:48.974Z,1.73
2019-03-09T11:46:20.114Z,1.83
2019-03-09T11:48:51.410Z,2.20
2019-03-09T11:51:22.546Z,1.73
2019-03-09T11:53:54.075Z,2.07
2019-03-09T11:56:25.145Z,1.70
2019-03-09T11:58:56.464Z,1.50
2019-03-09T12:01:27.589Z,1.90
2019-03-09T12:03:59.150Z,1.40
2019-03-09T12:06:30.386Z,1.80
2019-03-09T12:09:01.791Z,2.20
2019-03-09T12:11:34.542Z,1.80
2019-03-09T12:14:05.974Z,1.90
2019-03-09T12:16:37.982Z,2.00
2019-03-09T12:19:09.276Z,1.80
2019-03-09T12:21:40.455Z,2.03
2019-03-09T12:24:16.752Z,1.70
2019-03-09T12:26:44.471Z,1.87
2019-03-09T12:29:15.913Z,2.00
2019-03-09T12:31:47.038Z,1.93
2019-03-09T12:34:18.410Z,1.70
2019-03-09T12:36:49.538Z,2.20
2019-03-09T12:39:21.022Z,1.60
2019-03-09T12:41:52.596Z,1.80
2019-03-09T12:44:25.452Z,1.70
2019-03-09T12:46:56.528Z,1.80
2019-03-09T12:49:28.039Z,1.60
2019-03-09T12:51:59.134Z,1.63
2019-03-09T12:54:30.492Z,1.53
2019-03-09T12:57:01.570Z,1.70
2019-03-09T12:59:34.167Z,1.67
2019-03-09T13:02:05.397Z,1.60
2019-03-09T13:04:36.750Z,2.07
2019-03-09T13:07:07.824Z,2.13
2019-03-09T13:09:39.143Z,1.97
2019-03-09T13:12:29.280Z,2.20
2019-03-09T13:15:00.710Z,1.73
2019-03-09T13:17:31.831Z,1.93
2019-03-09T13:20:03.085Z,1.80
2019-03-09T13:22:34.235Z,2.20
2019-03-09T13:25:05.918Z,2.20
2019-03-09T13:27:37.073Z,2.10
2019-03-09T13:30:10.314Z,2.13
2019-03-09T13:32:41.513Z,2.10
2019-03-09T13:35:12.930Z,2.33
2019-03-09T13:37:43.983Z,2.10
2019-03-09T13:40:16.847Z,1.90
2019-03-09T13:42:47.892Z,1.90
2019-03-09T13:45:19.097Z,2.00
2019-03-09T13:48:09.261Z,1.80
2019-03-09T13:50:40.576Z,1.70
2019-03-09T13:53:11.682Z,1.83
2019-03-09T13:55:42.361Z,2.07
2019-03-09T13:58:12.594Z,1.77
2019-03-09T14:00:43.813Z,2.27
2019-03-09T14:03:15.036Z,1.80
2019-03-09T14:05:46.316Z,1.90
2019-03-09T14:08:17.408Z,1.90
2019-03-09T14:10:48.800Z,2.17
2019-03-09T14:13:20.038Z,1.80
2019-03-09T14:15:51.496Z,1.90
2019-03-09T14:18:22.565Z,2.00
2019-03-09T14:20:53.898Z,2.60
2019-03-09T14:23:25.072Z,1.90
2019-03-09T14:25:56.488Z,2.40
2019-03-09T14:28:28.552Z,2.57
2019-03-09T14:30:59.908Z,2.67
2019-03-09T14:33:31.011Z,2.47
2019-03-09T14:36:02.318Z,2.80
2019-03-09T14:38:35.181Z,2.83
2019-03-09T14:41:05.636Z,2.97
2019-03-09T14:43:36.532Z,2.67
2019-03-09T14:46:07.840Z,3.23
2019-03-09T14:48:38.969Z,3.00
2019-03-09T14:51:10.310Z,3.07
2019-03-09T14:53:41.446Z,3.30
2019-03-09T14:56:12.884Z,3.20
2019-03-09T14:58:44.008Z,2.97
2019-03-09T15:01:15.496Z,3.10
2019-03-09T15:03:46.576Z,2.60
2019-03-09T15:06:17.862Z,2.47
2019-03-09T15:08:48.916Z,2.27
2019-03-09T15:11:20.248Z,2.40
2019-03-09T15:13:52.522Z,2.63
2019-03-09T15:16:23.914Z,3.37
2019-03-09T15:18:54.954Z,3.40
2019-03-09T15:21:26.299Z,3.30
2019-03-09T15:23:57.372Z,4.27
2019-03-09T15:26:28.668Z,3.10
2019-03-09T15:28:59.746Z,1.80
2019-03-09T15:31:31.062Z,1.60
2019-03-09T15:34:02.182Z,2.50
2019-03-09T15:36:33.559Z,2.00
2019-03-09T15:39:06.387Z,1.60
2019-03-09T15:41:38.017Z,1.40
2019-03-09T15:44:09.029Z,2.00
2019-03-09T15:46:40.404Z,1.60
2019-03-09T15:49:11.598Z,1.80
2019-03-09T15:51:43.088Z,1.60
2019-03-09T15:54:14.235Z,2.20
2019-03-09T15:56:45.658Z,1.83
2019-03-09T15:59:16.768Z,1.60
2019-03-09T16:01:48.194Z,1.60
2019-03-09T16:04:19.293Z,1.40
2019-03-09T16:06:50.529Z,1.60
2019-03-09T16:09:21.725Z,2.07
2019-03-09T16:11:53.084Z,1.57
2019-03-09T16:14:24.154Z,1.60
2019-03-09T16:16:55.394Z,1.60
2019-03-09T16:19:26.471Z,1.60
2019-03-09T16:21:57.664Z,1.70
2019-03-09T16:24:28.748Z,1.57
2019-03-09T16:26:59.979Z,1.80
2019-03-09T16:29:31.037Z,1.70
2019-03-09T16:32:01.726Z,1.73
2019-03-09T16:34:32.846Z,1.77
2019-03-09T16:37:04.103Z,2.10
2019-03-09T16:39:35.212Z,1.73
2019-03-09T16:42:06.504Z,2.10
2019-03-09T16:44:37.552Z,2.10
2019-03-09T16:47:11.696Z,2.17
2019-03-09T16:49:42.763Z,2.67
2019-03-09T16:52:14.164Z,2.30
2019-03-09T16:54:45.321Z,2.40
2019-03-09T16:57:16.656Z,2.47
2019-03-09T16:59:47.909Z,2.67
2019-03-09T17:02:27.591Z,2.83
2019-03-09T17:04:51.820Z,3.07
2019-03-09T17:07:23.172Z,3.07
2019-03-09T17:09:55.226Z,2.80
2019-03-09T17:12:26.588Z,2.80
2019-03-09T17:14:57.673Z,2.70
2019-03-09T17:17:28.984Z,3.07
2019-03-09T17:20:00.070Z,2.63
2019-03-09T17:22:33.130Z,2.90
2019-03-09T17:25:04.408Z,2.40
2019-03-09T17:27:35.738Z,2.70
2019-03-09T17:30:11.302Z,2.80
2019-03-09T17:32:42.700Z,2.80
2019-03-09T17:35:14.174Z,3.17
2019-03-09T17:37:45.412Z,3.10
2019-03-09T17:40:16.518Z,3.00
2019-03-09T17:42:47.718Z,3.10
2019-03-09T17:45:19.991Z,2.80
2019-03-09T17:47:51.318Z,3.00
2019-03-09T17:50:22.492Z,3.20
2019-03-09T17:52:53.775Z,3.40
2019-03-09T17:55:25.826Z,2.90
2019-03-09T17:57:57.126Z,2.93
2019-03-09T18:00:29.552Z,3.00
2019-03-09T18:03:00.858Z,3.00
2019-03-09T18:05:32.066Z,3.13
2019-03-09T18:08:03.450Z,3.53
2019-03-09T18:10:41.067Z,3.20
2019-03-09T18:13:12.602Z,3.43
2019-03-09T18:15:43.665Z,2.90
2019-03-09T18:18:14.987Z,3.43
2019-03-09T18:20:46.199Z,3.60
2019-03-09T18:23:17.682Z,3.53
2019-03-09T18:25:48.742Z,3.40
2019-03-09T18:28:20.076Z,3.13
2019-03-09T18:30:51.210Z,3.67
2019-03-09T18:33:22.424Z,3.20
2019-03-09T18:35:53.464Z,3.80
2019-03-09T18:38:24.814Z,3.70
2019-03-09T18:40:55.890Z,3.67
2019-03-09T18:43:27.156Z,4.07
2019-03-09T18:45:58.219Z,3.77
2019-03-09T18:48:29.622Z,3.60
2019-03-09T18:51:00.702Z,3.57
2019-03-09T18:53:32.036Z,3.40
2019-03-09T18:56:03.123Z,3.70
2019-03-09T18:58:34.422Z,3.53
2019-03-09T19:01:05.524Z,4.30
2019-03-09T19:03:37.023Z,3.57
2019-03-09T19:06:08.116Z,3.93
2019-03-09T19:08:39.454Z,3.30
2019-03-09T19:11:10.556Z,3.90
2019-03-09T19:13:41.930Z,3.97
2019-03-09T19:16:13.074Z,3.60
2019-03-09T19:18:44.416Z,4.07
2019-03-09T19:21:15.594Z,3.83
2019-03-09T19:23:46.896Z,3.90
2019-03-09T19:26:18.219Z,3.73
2019-03-09T19:28:49.624Z,4.10
2019-03-09T19:31:20.796Z,4.00
2019-03-09T19:33:52.213Z,3.77
2019-03-09T19:36:23.578Z,3.70
2019-03-09T19:38:54.959Z,4.20
2019-03-09T19:41:26.314Z,3.93
2019-03-09T19:43:57.827Z,4.40
2019-03-09T19:46:29.257Z,4.30
2019-03-09T19:49:00.625Z,4.13
2019-03-09T19:51:31.788Z,4.23
2019-03-09T19:54:03.328Z,3.97
2019-03-09T19:56:34.468Z,3.90
2019-03-09T19:59:05.924Z,4.40
2019-03-09T20:01:37.244Z,4.50
2019-03-09T20:04:08.708Z,3.97
2019-03-09T20:06:39.886Z,4.60
2019-03-09T20:09:11.332Z,4.03
2019-03-09T20:11:42.579Z,4.37
2019-03-09T20:14:13.785Z,4.10
2019-03-09T20:16:44.934Z,3.77
2019-03-09T20:19:16.346Z,3.93
2019-03-09T20:21:47.552Z,4.60
2019-03-09T20:24:18.890Z,3.97
2019-03-09T20:26:49.979Z,3.93
2019-03-09T20:29:21.277Z,4.20
2019-03-09T20:31:52.415Z,3.63
2019-03-09T20:34:23.716Z,4.00
2019-03-09T20:36:54.903Z,3.90
2019-03-09T20:39:26.754Z,4.50
2019-03-09T20:41:57.916Z,3.63
2019-03-09T20:44:29.318Z,3.40
2019-03-09T20:47:00.496Z,3.67
2019-03-09T20:49:31.755Z,3.70
2019-03-09T20:52:02.856Z,3.40
2019-03-09T20:54:34.166Z,4.30
2019-03-09T20:57:05.353Z,4.30
2019-03-09T20:59:36.793Z,3.40
2019-03-09T21:02:08.009Z,3.57
2019-03-09T21:04:39.346Z,3.50
2019-03-09T21:07:10.522Z,3.47
2019-03-09T21:09:41.810Z,3.53
2019-03-09T21:12:13.031Z,4.10
2019-03-09T21:14:44.452Z,3.73
2019-03-09T21:17:16.688Z,3.70
2019-03-09T21:19:47.904Z,3.60
2019-03-09T21:22:18.981Z,3.53
2019-03-09T21:24:50.278Z,4.00
2019-03-09T21:27:21.412Z,3.70
2019-03-09T21:29:52.790Z,3.80
2019-03-09T21:32:24.295Z,4.70
2019-03-09T21:34:55.575Z,3.77
2019-03-09T21:37:26.994Z,3.87
2019-03-09T21:39:58.493Z,3.80
2019-03-09T21:42:29.682Z,3.60
2019-03-09T21:45:01.087Z,3.83
2019-03-09T21:47:33.641Z,4.00
2019-03-09T21:50:06.135Z,3.97
2019-03-09T21:52:37.280Z,4.37
2019-03-09T21:55:09.317Z,4.13
2019-03-09T21:57:40.426Z,4.10
2019-03-09T22:00:12.842Z,3.90
2019-03-09T22:02:44.309Z,4.17
2019-03-09T22:05:15.733Z,3.87
2019-03-09T22:07:46.876Z,3.87
2019-03-09T22:10:18.241Z,3.80
2019-03-09T22:12:49.285Z,3.50
2019-03-09T22:15:20.949Z,3.97
2019-03-09T22:17:52.055Z,3.80
2019-03-09T22:20:23.382Z,3.43
2019-03-09T22:22:54.442Z,4.00
2019-03-09T22:25:25.833Z,3.73
2019-03-09T22:27:57.202Z,3.90
2019-03-09T22:30:28.620Z,3.60
2019-03-09T22:32:59.849Z,4.10
2019-03-09T22:35:31.404Z,3.70
2019-03-09T22:38:02.586Z,4.13
2019-03-09T22:40:34.124Z,3.80
2019-03-09T22:43:05.498Z,4.07
2019-03-09T22:45:36.932Z,3.83
2019-03-09T22:48:08.063Z,3.57
2019-03-09T22:50:39.826Z,3.90
2019-03-09T22:53:10.935Z,3.87
2019-03-09T22:55:42.560Z,4.03
2019-03-09T22:58:13.712Z,3.97
2019-03-09T23:00:46.016Z,3.87
2019-03-09T23:03:18.674Z,4.20
2019-03-09T23:05:49.988Z,3.60
2019-03-09T23:08:21.268Z,4.13
2019-03-09T23:10:52.800Z,3.77
2019-03-09T23:13:23.922Z,3.80
2019-03-09T23:15:55.470Z,3.67
2019-03-09T23:18:27.970Z,3.73
2019-03-09T23:20:59.365Z,3.90
2019-03-09T23:23:30.453Z,4.20
2019-03-09T23:26:01.698Z,3.77
2019-03-09T23:28:46.616Z,4.30
2019-03-09T23:31:17.890Z,3.67
2019-03-09T23:33:49.015Z,4.20
2019-03-09T23:36:20.236Z,5.20
2019-03-09T23:38:51.332Z,4.20
2019-03-09T23:41:22.680Z,4.33
2019-03-09T23:43:54.752Z,4.67
2019-03-09T23:46:26.112Z,4.27
2019-03-09T23:48:57.198Z,4.60
2019-03-09T23:51:29.116Z,5.13
2019-03-09T23:54:00.248Z,4.70
2019-03-09T23:56:31.616Z,4.40
2019-03-09T23:59:02.690Z,4.37
